sensor_id;sensor_type;location;lat;lon;timestamp;pressure;altitude;pressure_sealevel;temperature;humidity
16821;BME280;8527;49.740;6.604;2023-08-01T00:05:03;98401.03;;;17.72;100.00
16821;BME280;8527;49.740;6.604;2023-08-01T00:10:09;98404.69;;;17.66;100.00
16821;BME280;8527;49.740;6.604;2023-08-01T00:15:11;98398.53;;;17.65;100.00
16821;BME280;8527;49.740;6.604;2023-08-01T00:20:12;98393.78;;;17.72;100.00
16821;BME280;8527;49.740;6.604;2023-08-01T00:25:11;98399.13;;;17.72;100.00
16821;BME280;8527;49.740;6.604;2023-08-01T00:30:10;98415.22;;;17.72;100.00
16821;BME280;8527;49.740;6.604;2023-08-01T00:35:13;98358.84;;;17.67;100.00
16821;BME280;8527;49.740;6.604;2023-08-01T00:40:12;98358.03;;;17.67;100.00
16821;BME280;8527;49.740;6.604;2023-08-01T00:45:11;98351.00;;;17.61;100.00
16821;BME280;8527;49.740;6.604;2023-08-01T00:50:13;98339.53;;;17.65;100.00
16821;BME280;8527;49.740;6.604;2023-08-01T00:55:11;98314.91;;;17.74;100.00
16821;BME280;8527;49.740;6.604;2023-08-01T01:00:13;98314.56;;;17.65;100.00
16821;BME280;8527;49.740;6.604;2023-08-01T01:05:15;98297.09;;;17.62;100.00
16821;BME280;8527;49.740;6.604;2023-08-01T01:10:13;98305.41;;;17.61;100.00
16821;BME280;8527;49.740;6.604;2023-08-01T01:15:11;98304.56;;;17.60;100.00
16821;BME280;8527;49.740;6.604;2023-08-01T01:20:10;98281.88;;;17.68;100.00
16821;BME280;8527;49.740;6.604;2023-08-01T01:25:11;98268.44;;;17.68;100.00
16821;BME280;8527;49.740;6.604;2023-08-01T01:30:20;98258.22;;;17.65;100.00
16821;BME280;8527;49.740;6.604;2023-08-01T01:35:28;98265.28;;;17.71;100.00
16821;BME280;8527;49.740;6.604;2023-08-01T01:40:29;98267.78;;;17.78;100.00
16821;BME280;8527;49.740;6.604;2023-08-01T01:45:27;98268.84;;;17.77;100.00
16821;BME280;8527;49.740;6.604;2023-08-01T01:50:32;98267.78;;;17.78;100.00
16821;BME280;8527;49.740;6.604;2023-08-01T01:55:33;98253.84;;;17.81;100.00
16821;BME280;8527;49.740;6.604;2023-08-01T02:00:32;98234.81;;;17.82;100.00
16821;BME280;8527;49.740;6.604;2023-08-01T02:05:46;98238.19;;;17.72;100.00
16821;BME280;8527;49.740;6.604;2023-08-01T02:10:48;98245.44;;;17.72;100.00
16821;BME280;8527;49.740;6.604;2023-08-01T02:15:46;98228.28;;;17.73;100.00
16821;BME280;8527;49.740;6.604;2023-08-01T02:20:44;98243.63;;;17.78;100.00
16821;BME280;8527;49.740;6.604;2023-08-01T02:25:43;98221.34;;;17.77;100.00
16821;BME280;8527;49.740;6.604;2023-08-01T02:30:44;98221.31;;;17.72;100.00
16821;BME280;8527;49.740;6.604;2023-08-01T02:35:42;98218.63;;;17.72;100.00
16821;BME280;8527;49.740;6.604;2023-08-01T02:40:40;98203.88;;;17.75;100.00
16821;BME280;8527;49.740;6.604;2023-08-01T02:45:44;98206.84;;;17.73;100.00
16821;BME280;8527;49.740;6.604;2023-08-01T02:50:42;98195.56;;;17.71;100.00
16821;BME280;8527;49.740;6.604;2023-08-01T02:55:41;98194.19;;;17.68;100.00
16821;BME280;8527;49.740;6.604;2023-08-01T03:00:46;98195.25;;;17.67;100.00
16821;BME280;8527;49.740;6.604;2023-08-01T03:05:44;98187.50;;;17.71;100.00
16821;BME280;8527;49.740;6.604;2023-08-01T03:10:53;98184.03;;;17.76;100.00
16821;BME280;8527;49.740;6.604;2023-08-01T03:16:03;98194.53;;;17.77;100.00
16821;BME280;8527;49.740;6.604;2023-08-01T03:21:06;98189.13;;;17.72;100.00
16821;BME280;8527;49.740;6.604;2023-08-01T03:26:05;98190.94;;;17.66;100.00
16821;BME280;8527;49.740;6.604;2023-08-01T03:31:06;98202.47;;;17.67;100.00
16821;BME280;8527;49.740;6.604;2023-08-01T03:36:07;98217.50;;;17.68;100.00
16821;BME280;8527;49.740;6.604;2023-08-01T03:41:26;98201.56;;;17.56;100.00
16821;BME280;8527;49.740;6.604;2023-08-01T03:46:31;98165.88;;;17.55;100.00
16821;BME280;8527;49.740;6.604;2023-08-01T03:51:30;98162.63;;;17.48;100.00
16821;BME280;8527;49.740;6.604;2023-08-01T03:56:28;98168.56;;;17.55;100.00
16821;BME280;8527;49.740;6.604;2023-08-01T04:01:32;98183.66;;;17.62;100.00
16821;BME280;8527;49.740;6.604;2023-08-01T04:06:30;98184.16;;;17.58;100.00
16821;BME280;8527;49.740;6.604;2023-08-01T04:11:29;98189.03;;;17.62;100.00
16821;BME280;8527;49.740;6.604;2023-08-01T04:16:27;98202.31;;;17.51;100.00
16821;BME280;8527;49.740;6.604;2023-08-01T04:21:31;98195.34;;;17.50;100.00
16821;BME280;8527;49.740;6.604;2023-08-01T04:26:35;98166.59;;;17.46;100.00
16821;BME280;8527;49.740;6.604;2023-08-01T04:31:37;98178.44;;;17.50;100.00
16821;BME280;8527;49.740;6.604;2023-08-01T04:36:38;98192.66;;;17.50;100.00
16821;BME280;8527;49.740;6.604;2023-08-01T04:42:02;98208.25;;;17.53;100.00
16821;BME280;8527;49.740;6.604;2023-08-01T04:47:00;98211.75;;;17.54;100.00
16821;BME280;8527;49.740;6.604;2023-08-01T04:52:01;98226.25;;;17.58;100.00
16821;BME280;8527;49.740;6.604;2023-08-01T04:57:00;98207.72;;;17.56;100.00
16821;BME280;8527;49.740;6.604;2023-08-01T05:02:01;98190.31;;;17.59;100.00
16821;BME280;8527;49.740;6.604;2023-08-01T05:07:02;98195.50;;;17.66;100.00
16821;BME280;8527;49.740;6.604;2023-08-01T05:12:01;98192.00;;;17.65;100.00
16821;BME280;8527;49.740;6.604;2023-08-01T05:17:00;98218.31;;;17.68;100.00
16821;BME280;8527;49.740;6.604;2023-08-01T05:21:58;98228.81;;;17.70;100.00
16821;BME280;8527;49.740;6.604;2023-08-01T05:27:00;98245.94;;;17.69;100.00
16821;BME280;8527;49.740;6.604;2023-08-01T05:31:58;98244.81;;;17.65;100.00
16821;BME280;8527;49.740;6.604;2023-08-01T05:37:02;98256.94;;;17.67;100.00
16821;BME280;8527;49.740;6.604;2023-08-01T05:42:04;98280.44;;;17.82;100.00
16821;BME280;8527;49.740;6.604;2023-08-01T05:47:05;98284.16;;;17.81;100.00
16821;BME280;8527;49.740;6.604;2023-08-01T05:52:07;98285.81;;;17.60;100.00
16821;BME280;8527;49.740;6.604;2023-08-01T05:57:08;98295.22;;;17.63;100.00
16821;BME280;8527;49.740;6.604;2023-08-01T06:02:17;98299.47;;;17.58;100.00
16821;BME280;8527;49.740;6.604;2023-08-01T06:07:15;98313.69;;;17.59;100.00
16821;BME280;8527;49.740;6.604;2023-08-01T06:12:20;98326.47;;;17.74;100.00
16821;BME280;8527;49.740;6.604;2023-08-01T06:17:36;98332.56;;;17.92;100.00
16821;BME280;8527;49.740;6.604;2023-08-01T06:22:37;98329.41;;;17.72;100.00
16821;BME280;8527;49.740;6.604;2023-08-01T06:27:39;98341.94;;;17.89;100.00
16821;BME280;8527;49.740;6.604;2023-08-01T06:32:40;98345.78;;;17.98;100.00
16821;BME280;8527;49.740;6.604;2023-08-01T06:37:41;98341.44;;;17.92;100.00
16821;BME280;8527;49.740;6.604;2023-08-01T06:42:43;98349.78;;;18.83;99.50
16821;BME280;8527;49.740;6.604;2023-08-01T06:47:41;98345.28;;;19.37;95.92
16821;BME280;8527;49.740;6.604;2023-08-01T06:52:39;98356.09;;;20.27;90.83
16821;BME280;8527;49.740;6.604;2023-08-01T06:57:38;98368.81;;;20.84;85.03
16821;BME280;8527;49.740;6.604;2023-08-01T07:02:39;98377.34;;;21.43;81.35
16821;BME280;8527;49.740;6.604;2023-08-01T07:07:38;98384.59;;;22.18;78.98
16821;BME280;8527;49.740;6.604;2023-08-01T07:12:36;98395.09;;;22.65;77.22
16821;BME280;8527;49.740;6.604;2023-08-01T07:17:35;98391.13;;;22.57;74.74
16821;BME280;8527;49.740;6.604;2023-08-01T07:22:35;98399.03;;;22.48;75.51
16821;BME280;8527;49.740;6.604;2023-08-01T07:27:34;98411.66;;;22.08;77.56
16821;BME280;8527;49.740;6.604;2023-08-01T07:32:35;98416.41;;;22.72;74.79
16821;BME280;8527;49.740;6.604;2023-08-01T07:37:36;98417.44;;;22.81;70.91
16821;BME280;8527;49.740;6.604;2023-08-01T07:42:35;98425.69;;;23.30;70.49
16821;BME280;8527;49.740;6.604;2023-08-01T07:47:33;98425.00;;;23.92;69.62
16821;BME280;8527;49.740;6.604;2023-08-01T07:52:32;98435.47;;;23.21;69.98
16821;BME280;8527;49.740;6.604;2023-08-01T07:57:33;98434.69;;;22.85;69.37
16821;BME280;8527;49.740;6.604;2023-08-01T08:02:31;98448.47;;;21.88;71.93
16821;BME280;8527;49.740;6.604;2023-08-01T08:07:30;98459.41;;;21.05;75.92
16821;BME280;8527;49.740;6.604;2023-08-01T08:12:34;98457.44;;;20.49;81.33
16821;BME280;8527;49.740;6.604;2023-08-01T08:17:32;98463.44;;;21.29;79.57
16821;BME280;8527;49.740;6.604;2023-08-01T08:22:31;98467.38;;;21.88;79.51
16821;BME280;8527;49.740;6.604;2023-08-01T08:27:31;98461.28;;;22.23;75.76
16821;BME280;8527;49.740;6.604;2023-08-01T08:32:38;98471.44;;;21.81;76.97
16821;BME280;8527;49.740;6.604;2023-08-01T08:37:36;98472.84;;;21.57;76.68
16821;BME280;8527;49.740;6.604;2023-08-01T08:42:34;98466.63;;;21.57;75.17
16821;BME280;8527;49.740;6.604;2023-08-01T08:47:38;98462.69;;;22.15;73.51
16821;BME280;8527;49.740;6.604;2023-08-01T08:52:53;98466.03;;;22.52;72.50
16821;BME280;8527;49.740;6.604;2023-08-01T08:57:53;98468.09;;;22.70;73.66
16821;BME280;8527;49.740;6.604;2023-08-01T09:03:02;98469.09;;;23.73;70.50
16821;BME280;8527;49.740;6.604;2023-08-01T09:08:15;98463.66;;;23.73;70.87
16821;BME280;8527;49.740;6.604;2023-08-01T09:13:20;98468.91;;;23.40;69.24
16821;BME280;8527;49.740;6.604;2023-08-01T09:18:21;98472.13;;;23.08;68.75
16821;BME280;8527;49.740;6.604;2023-08-01T09:23:20;98478.19;;;22.44;68.57
16821;BME280;8527;49.740;6.604;2023-08-01T09:28:23;98476.56;;;22.93;68.49
16821;BME280;8527;49.740;6.604;2023-08-01T09:33:37;98485.88;;;23.11;68.86
16821;BME280;8527;49.740;6.604;2023-08-01T09:38:37;98476.28;;;23.29;67.93
16821;BME280;8527;49.740;6.604;2023-08-01T09:43:44;98486.63;;;24.68;64.72
16821;BME280;8527;49.740;6.604;2023-08-01T09:48:48;98462.31;;;25.16;59.47
16821;BME280;8527;49.740;6.604;2023-08-01T09:53:55;98471.44;;;25.53;60.57
16821;BME280;8527;49.740;6.604;2023-08-01T09:58:55;98459.81;;;25.66;56.92
16821;BME280;8527;49.740;6.604;2023-08-01T10:03:56;98470.06;;;24.89;60.36
16821;BME280;8527;49.740;6.604;2023-08-01T10:08:55;98478.50;;;24.88;60.26
16821;BME280;8527;49.740;6.604;2023-08-01T10:13:54;98488.00;;;23.79;63.30
16821;BME280;8527;49.740;6.604;2023-08-01T10:18:58;98506.47;;;23.47;65.29
16821;BME280;8527;49.740;6.604;2023-08-01T10:24:00;98505.22;;;23.34;66.18
16821;BME280;8527;49.740;6.604;2023-08-01T10:29:01;98504.66;;;24.15;64.99
16821;BME280;8527;49.740;6.604;2023-08-01T10:34:11;98494.19;;;24.71;62.72
16821;BME280;8527;49.740;6.604;2023-08-01T10:39:22;98498.22;;;25.60;61.81
16821;BME280;8527;49.740;6.604;2023-08-01T10:44:23;98487.66;;;26.14;60.64
16821;BME280;8527;49.740;6.604;2023-08-01T10:49:41;98474.13;;;26.88;58.40
16821;BME280;8527;49.740;6.604;2023-08-01T10:54:40;98477.34;;;27.13;57.47
16821;BME280;8527;49.740;6.604;2023-08-01T10:59:42;98465.66;;;27.12;52.71
16821;BME280;8527;49.740;6.604;2023-08-01T11:04:43;98479.88;;;26.86;54.79
16821;BME280;8527;49.740;6.604;2023-08-01T11:09:47;98483.22;;;27.06;52.74
16821;BME280;8527;49.740;6.604;2023-08-01T11:14:46;98505.91;;;26.27;53.60
16821;BME280;8527;49.740;6.604;2023-08-01T11:19:59;98516.22;;;25.22;58.07
16821;BME280;8527;49.740;6.604;2023-08-01T11:24:59;98519.09;;;25.45;61.00
16821;BME280;8527;49.740;6.604;2023-08-01T11:29:58;98518.97;;;25.69;61.73
16821;BME280;8527;49.740;6.604;2023-08-01T11:35:01;98500.25;;;25.96;60.47
16821;BME280;8527;49.740;6.604;2023-08-01T11:40:00;98494.81;;;25.68;58.68
16821;BME280;8527;49.740;6.604;2023-08-01T11:45:08;98493.31;;;26.04;54.86
16821;BME280;8527;49.740;6.604;2023-08-01T11:50:13;98494.72;;;25.59;56.59
16821;BME280;8527;49.740;6.604;2023-08-01T11:55:26;98489.69;;;25.66;56.71
16821;BME280;8527;49.740;6.604;2023-08-01T12:00:31;98487.28;;;25.32;54.56
16821;BME280;8527;49.740;6.604;2023-08-01T12:05:35;98498.44;;;25.91;55.30
16821;BME280;8527;49.740;6.604;2023-08-01T12:10:37;98509.09;;;25.74;55.20
16821;BME280;8527;49.740;6.604;2023-08-01T12:15:38;98509.03;;;25.79;54.49
16821;BME280;8527;49.740;6.604;2023-08-01T12:20:42;98507.38;;;25.78;53.72
16821;BME280;8527;49.740;6.604;2023-08-01T12:25:41;98512.59;;;25.27;56.24
16821;BME280;8527;49.740;6.604;2023-08-01T12:30:39;98513.63;;;25.31;56.07
16821;BME280;8527;49.740;6.604;2023-08-01T12:35:39;98509.59;;;25.76;54.30
16821;BME280;8527;49.740;6.604;2023-08-01T12:40:40;98504.28;;;25.98;53.59
16821;BME280;8527;49.740;6.604;2023-08-01T12:45:46;98516.00;;;26.27;55.36
16821;BME280;8527;49.740;6.604;2023-08-01T12:50:48;98516.47;;;26.01;54.86
16821;BME280;8527;49.740;6.604;2023-08-01T12:55:51;98512.03;;;25.91;55.05
16821;BME280;8527;49.740;6.604;2023-08-01T13:00:49;98509.81;;;25.32;55.63
16821;BME280;8527;49.740;6.604;2023-08-01T13:05:50;98519.03;;;24.98;56.44
16821;BME280;8527;49.740;6.604;2023-08-01T13:10:51;98525.75;;;24.43;57.65
16821;BME280;8527;49.740;6.604;2023-08-01T13:15:50;98526.22;;;24.26;56.06
16821;BME280;8527;49.740;6.604;2023-08-01T13:20:48;98541.94;;;24.05;57.27
16821;BME280;8527;49.740;6.604;2023-08-01T13:25:51;98552.41;;;24.11;57.08
16821;BME280;8527;49.740;6.604;2023-08-01T13:30:50;98570.25;;;23.58;58.13
16821;BME280;8527;49.740;6.604;2023-08-01T13:35:51;98609.50;;;23.16;65.39
16821;BME280;8527;49.740;6.604;2023-08-01T13:40:52;98619.91;;;21.96;72.33
16821;BME280;8527;49.740;6.604;2023-08-01T13:45:50;98606.13;;;22.18;72.47
16821;BME280;8527;49.740;6.604;2023-08-01T13:50:51;98619.56;;;22.44;72.34
16821;BME280;8527;49.740;6.604;2023-08-01T13:55:54;98618.03;;;21.91;74.64
16821;BME280;8527;49.740;6.604;2023-08-01T14:01:01;98605.59;;;22.06;75.09
16821;BME280;8527;49.740;6.604;2023-08-01T14:06:07;98607.66;;;22.51;71.86
16821;BME280;8527;49.740;6.604;2023-08-01T14:11:10;98610.38;;;22.45;72.05
16821;BME280;8527;49.740;6.604;2023-08-01T14:16:09;98598.28;;;22.12;72.57
16821;BME280;8527;49.740;6.604;2023-08-01T14:21:10;98600.66;;;22.29;72.65
16821;BME280;8527;49.740;6.604;2023-08-01T14:26:11;98585.56;;;22.17;71.53
16821;BME280;8527;49.740;6.604;2023-08-01T14:31:13;98585.13;;;21.74;69.30
16821;BME280;8527;49.740;6.604;2023-08-01T14:36:11;98604.81;;;21.69;69.53
16821;BME280;8527;49.740;6.604;2023-08-01T14:41:15;98590.16;;;22.12;68.44
16821;BME280;8527;49.740;6.604;2023-08-01T14:46:13;98606.44;;;21.91;68.11
16821;BME280;8527;49.740;6.604;2023-08-01T14:51:12;98606.69;;;22.00;68.80
16821;BME280;8527;49.740;6.604;2023-08-01T14:56:10;98593.47;;;21.88;68.33
16821;BME280;8527;49.740;6.604;2023-08-01T15:01:17;98602.63;;;21.61;69.31
16821;BME280;8527;49.740;6.604;2023-08-01T15:06:16;98616.16;;;21.82;73.89
16821;BME280;8527;49.740;6.604;2023-08-01T15:11:15;98621.81;;;21.85;72.27
16821;BME280;8527;49.740;6.604;2023-08-01T15:16:13;98631.47;;;21.19;72.59
16821;BME280;8527;49.740;6.604;2023-08-01T15:21:14;98638.44;;;21.04;73.39
16821;BME280;8527;49.740;6.604;2023-08-01T15:26:13;98646.09;;;20.70;77.32
16821;BME280;8527;49.740;6.604;2023-08-01T15:31:11;98655.00;;;20.70;79.29
16821;BME280;8527;49.740;6.604;2023-08-01T15:36:15;98642.16;;;20.83;81.16
16821;BME280;8527;49.740;6.604;2023-08-01T15:41:14;98636.06;;;21.13;78.65
16821;BME280;8527;49.740;6.604;2023-08-01T15:46:15;98647.09;;;21.17;78.82
16821;BME280;8527;49.740;6.604;2023-08-01T15:51:16;98640.91;;;21.21;78.88
16821;BME280;8527;49.740;6.604;2023-08-01T15:56:14;98642.25;;;21.29;80.01
16821;BME280;8527;49.740;6.604;2023-08-01T16:01:12;98642.00;;;21.36;79.36
16821;BME280;8527;49.740;6.604;2023-08-01T16:06:11;98650.66;;;21.28;79.40
16821;BME280;8527;49.740;6.604;2023-08-01T16:11:13;98653.06;;;21.29;79.19
16821;BME280;8527;49.740;6.604;2023-08-01T16:16:12;98639.50;;;21.03;77.79
16821;BME280;8527;49.740;6.604;2023-08-01T16:21:11;98642.25;;;21.14;78.97
16821;BME280;8527;49.740;6.604;2023-08-01T16:26:12;98641.69;;;21.12;78.14
16821;BME280;8527;49.740;6.604;2023-08-01T16:31:11;98648.41;;;21.04;76.27
16821;BME280;8527;49.740;6.604;2023-08-01T16:36:09;98641.69;;;21.12;76.67
16821;BME280;8527;49.740;6.604;2023-08-01T16:41:21;98646.41;;;20.78;75.18
16821;BME280;8527;49.740;6.604;2023-08-01T16:46:19;98645.31;;;20.74;nan
16821;BME280;8527;49.740;6.604;2023-08-01T16:51:21;98641.34;;;20.82;72.97
16821;BME280;8527;49.740;6.604;2023-08-01T16:56:22;98644.06;;;20.92;72.85
16821;BME280;8527;49.740;6.604;2023-08-01T17:01:20;98647.75;;;20.76;71.35
16821;BME280;8527;49.740;6.604;2023-08-01T17:06:19;98653.34;;;20.64;71.22
16821;BME280;8527;49.740;6.604;2023-08-01T17:11:22;98646.81;;;20.49;71.98
16821;BME280;8527;49.740;6.604;2023-08-01T17:16:21;98641.75;;;20.58;70.56
16821;BME280;8527;49.740;6.604;2023-08-01T17:21:19;98645.41;;;20.36;71.55
16821;BME280;8527;49.740;6.604;2023-08-01T17:26:17;98640.53;;;20.33;71.68
16821;BME280;8527;49.740;6.604;2023-08-01T17:31:19;98663.44;;;20.36;72.31
16821;BME280;8527;49.740;6.604;2023-08-01T17:36:17;98658.91;;;20.42;71.77
16821;BME280;8527;49.740;6.604;2023-08-01T17:41:16;98660.03;;;20.51;71.59
16821;BME280;8527;49.740;6.604;2023-08-01T17:46:18;98657.34;;;20.56;71.15
16821;BME280;8527;49.740;6.604;2023-08-01T17:51:17;98651.59;;;20.37;72.57
16821;BME280;8527;49.740;6.604;2023-08-01T17:56:16;98653.50;;;20.36;72.12
16821;BME280;8527;49.740;6.604;2023-08-01T18:01:15;98664.16;;;20.21;71.33
16821;BME280;8527;49.740;6.604;2023-08-01T18:06:16;98660.13;;;20.23;72.29
16821;BME280;8527;49.740;6.604;2023-08-01T18:11:17;98662.28;;;20.21;72.20
16821;BME280;8527;49.740;6.604;2023-08-01T18:16:19;98665.22;;;20.20;71.78
16821;BME280;8527;49.740;6.604;2023-08-01T18:21:20;98665.22;;;20.20;71.98
16821;BME280;8527;49.740;6.604;2023-08-01T18:26:21;98670.50;;;19.99;72.87
16821;BME280;8527;49.740;6.604;2023-08-01T18:31:26;98666.56;;;20.17;73.68
16821;BME280;8527;49.740;6.604;2023-08-01T18:36:31;98676.66;;;20.00;75.55
16821;BME280;8527;49.740;6.604;2023-08-01T18:41:33;98679.09;;;20.01;76.51
16821;BME280;8527;49.740;6.604;2023-08-01T18:46:31;98681.06;;;19.83;78.18
16821;BME280;8527;49.740;6.604;2023-08-01T18:51:37;98681.44;;;19.60;79.83
16821;BME280;8527;49.740;6.604;2023-08-01T18:56:37;98692.47;;;19.63;80.92
16821;BME280;8527;49.740;6.604;2023-08-01T19:01:35;98697.16;;;19.46;80.83
16821;BME280;8527;49.740;6.604;2023-08-01T19:06:36;98692.50;;;19.36;81.49
16821;BME280;8527;49.740;6.604;2023-08-01T19:11:35;98698.47;;;19.16;82.45
16821;BME280;8527;49.740;6.604;2023-08-01T19:16:34;98703.66;;;19.22;82.99
16821;BME280;8527;49.740;6.604;2023-08-01T19:21:37;98704.63;;;19.16;82.70
16821;BME280;8527;49.740;6.604;2023-08-01T19:26:39;98710.44;;;19.08;82.53
16821;BME280;8527;49.740;6.604;2023-08-01T19:31:37;98714.06;;;18.96;82.93
16821;BME280;8527;49.740;6.604;2023-08-01T19:36:38;98709.44;;;18.92;83.51
16821;BME280;8527;49.740;6.604;2023-08-01T19:41:40;98716.63;;;18.86;83.40
16821;BME280;8527;49.740;6.604;2023-08-01T19:46:38;98718.09;;;18.77;83.77
16821;BME280;8527;49.740;6.604;2023-08-01T19:51:39;98721.69;;;18.65;85.13
16821;BME280;8527;49.740;6.604;2023-08-01T19:56:41;98724.50;;;18.53;85.37
16821;BME280;8527;49.740;6.604;2023-08-01T20:01:39;98730.50;;;18.61;85.32
16821;BME280;8527;49.740;6.604;2023-08-01T20:06:40;98727.38;;;18.47;85.44
16821;BME280;8527;49.740;6.604;2023-08-01T20:11:39;98723.19;;;18.39;86.06
16821;BME280;8527;49.740;6.604;2023-08-01T20:16:38;98719.38;;;18.35;86.97
16821;BME280;8527;49.740;6.604;2023-08-01T20:21:36;98711.25;;;18.47;85.92
16821;BME280;8527;49.740;6.604;2023-08-01T20:26:37;98720.59;;;18.44;86.81
16821;BME280;8527;49.740;6.604;2023-08-01T20:31:36;98723.69;;;18.36;86.78
16821;BME280;8527;49.740;6.604;2023-08-01T20:36:34;98724.84;;;18.40;86.03
16821;BME280;8527;49.740;6.604;2023-08-01T20:41:37;98717.03;;;18.21;88.03
16821;BME280;8527;49.740;6.604;2023-08-01T20:46:36;98709.22;;;18.20;88.28
16821;BME280;8527;49.740;6.604;2023-08-01T20:51:34;98715.34;;;18.15;87.65
16821;BME280;8527;49.740;6.604;2023-08-01T20:56:33;98717.50;;;18.01;88.96
16821;BME280;8527;49.740;6.604;2023-08-01T21:01:36;98721.72;;;17.97;90.48
16821;BME280;8527;49.740;6.604;2023-08-01T21:06:35;98720.25;;;17.89;89.62
16821;BME280;8527;49.740;6.604;2023-08-01T21:11:33;98715.75;;;17.95;87.01
16821;BME280;8527;49.740;6.604;2023-08-01T21:16:32;98704.47;;;17.93;85.25
16821;BME280;8527;49.740;6.604;2023-08-01T21:21:39;98713.97;;;18.00;86.97
16821;BME280;8527;49.740;6.604;2023-08-01T21:26:37;98698.94;;;17.99;85.46
16821;BME280;8527;49.740;6.604;2023-08-01T21:31:41;98693.22;;;18.08;83.58
16821;BME280;8527;49.740;6.604;2023-08-01T21:36:47;98707.81;;;18.00;84.79
16821;BME280;8527;49.740;6.604;2023-08-01T21:41:45;98714.25;;;17.99;84.16
16821;BME280;8527;49.740;6.604;2023-08-01T21:46:43;98713.69;;;17.97;84.79
16821;BME280;8527;49.740;6.604;2023-08-01T21:51:41;98725.78;;;17.99;84.36
16821;BME280;8527;49.740;6.604;2023-08-01T21:56:42;98721.91;;;18.07;83.79
16821;BME280;8527;49.740;6.604;2023-08-01T22:01:44;98732.63;;;18.07;84.01
16821;BME280;8527;49.740;6.604;2023-08-01T22:06:43;98740.81;;;18.00;86.74
16821;BME280;8527;49.740;6.604;2023-08-01T22:11:44;98744.72;;;17.93;88.37
16821;BME280;8527;49.740;6.604;2023-08-01T22:16:42;98757.44;;;17.68;92.96
16821;BME280;8527;49.740;6.604;2023-08-01T22:21:46;98749.16;;;17.70;95.68
16821;BME280;8527;49.740;6.604;2023-08-01T22:26:49;98742.28;;;17.62;95.27
16821;BME280;8527;49.740;6.604;2023-08-01T22:31:48;98734.53;;;17.49;96.69
16821;BME280;8527;49.740;6.604;2023-08-01T22:36:46;98731.41;;;17.52;98.59
16821;BME280;8527;49.740;6.604;2023-08-01T22:41:51;98714.56;;;17.56;97.19
16821;BME280;8527;49.740;6.604;2023-08-01T22:46:58;98709.69;;;17.53;97.30
16821;BME280;8527;49.740;6.604;2023-08-01T22:52:02;98719.06;;;17.51;97.73
16821;BME280;8527;49.740;6.604;2023-08-01T22:57:04;98722.09;;;17.42;98.17
16821;BME280;8527;49.740;6.604;2023-08-01T23:02:03;98716.13;;;17.52;97.04
16821;BME280;8527;49.740;6.604;2023-08-01T23:07:01;98723.44;;;17.57;95.58
16821;BME280;8527;49.740;6.604;2023-08-01T23:11:59;98720.81;;;17.45;98.20
16821;BME280;8527;49.740;6.604;2023-08-01T23:17:03;98707.13;;;17.58;96.90
16821;BME280;8527;49.740;6.604;2023-08-01T23:22:05;98696.97;;;17.61;97.04
16821;BME280;8527;49.740;6.604;2023-08-01T23:27:04;98670.56;;;17.69;96.30
16821;BME280;8527;49.740;6.604;2023-08-01T23:32:05;98668.03;;;17.80;95.78
16821;BME280;8527;49.740;6.604;2023-08-01T23:37:07;98663.97;;;17.77;95.87
16821;BME280;8527;49.740;6.604;2023-08-01T23:42:08;98647.47;;;17.68;97.70
16821;BME280;8527;49.740;6.604;2023-08-01T23:47:12;98629.03;;;17.72;97.23
16821;BME280;8527;49.740;6.604;2023-08-01T23:52:16;98606.19;;;17.69;97.59
16821;BME280;8527;49.740;6.604;2023-08-01T23:57:15;98617.81;;;17.75;97.02
